createdAt,value
2022-09-01T00:00:03.550Z,15.20
2022-09-01T00:01:02.636Z,15.20
2022-09-01T00:02:03.629Z,15.10
2022-09-01T00:03:02.625Z,15.10
2022-09-01T00:04:02.702Z,15.10
2022-09-01T00:05:02.860Z,15.10
2022-09-01T00:06:02.944Z,15.10
2022-09-01T00:07:02.991Z,15.00
2022-09-01T00:08:02.966Z,15.00
2022-09-01T00:09:03.449Z,15.00
2022-09-01T00:10:03.822Z,15.00
2022-09-01T00:11:02.669Z,14.90
2022-09-01T00:12:02.684Z,14.90
2022-09-01T00:13:02.646Z,14.90
2022-09-01T00:14:02.705Z,14.90
2022-09-01T00:15:02.639Z,14.80
2022-09-01T00:16:02.764Z,14.80
2022-09-01T00:17:02.805Z,14.80
2022-09-01T00:18:02.683Z,14.80
2022-09-01T00:19:02.793Z,14.80
2022-09-01T00:20:02.856Z,14.70
2022-09-01T00:21:02.820Z,14.70
2022-09-01T00:22:02.895Z,14.70
2022-09-01T00:23:02.963Z,14.70
2022-09-01T00:24:03.041Z,14.70
2022-09-01T00:25:03.049Z,14.70
2022-09-01T00:26:03.230Z,14.70
2022-09-01T00:27:03.165Z,14.70
2022-09-01T00:28:03.227Z,14.60
2022-09-01T00:29:03.297Z,14.60
2022-09-01T00:30:03.287Z,14.60
2022-09-01T00:31:03.420Z,14.60
2022-09-01T00:32:03.365Z,14.50
2022-09-01T00:33:03.354Z,14.50
2022-09-01T00:34:03.507Z,14.50
2022-09-01T00:35:03.553Z,14.50
2022-09-01T00:36:03.602Z,14.50
2022-09-01T00:37:02.699Z,14.50
2022-09-01T00:38:02.798Z,14.50
2022-09-01T00:39:02.992Z,14.50
2022-09-01T00:40:02.920Z,14.40
2022-09-01T00:41:02.895Z,14.40
2022-09-01T00:42:03.038Z,14.40
2022-09-01T00:43:03.140Z,14.40
2022-09-01T00:44:03.226Z,14.40
2022-09-01T00:45:03.217Z,14.40
2022-09-01T00:46:03.393Z,14.40
2022-09-01T00:47:03.433Z,14.40
2022-09-01T00:48:03.546Z,14.30
2022-09-01T00:49:03.552Z,14.30
2022-09-01T00:50:03.648Z,14.30
2022-09-01T00:51:03.587Z,14.30
2022-09-01T00:52:03.595Z,14.20
2022-09-01T00:53:02.681Z,14.20
2022-09-01T00:54:02.836Z,14.20
2022-09-01T00:55:02.809Z,14.20
2022-09-01T00:56:02.778Z,14.20
2022-09-01T00:57:02.883Z,14.20
2022-09-01T00:58:02.873Z,14.20
2022-09-01T00:59:03.054Z,14.20
2022-09-01T01:00:03.039Z,14.10
2022-09-01T01:01:03.035Z,14.10
2022-09-01T01:02:03.050Z,14.10
2022-09-01T01:03:03.223Z,14.10
2022-09-01T01:04:03.151Z,14.10
2022-09-01T01:05:03.224Z,14.10
2022-09-01T01:06:03.375Z,14.00
2022-09-01T01:07:03.342Z,14.00
2022-09-01T01:08:03.320Z,14.00
2022-09-01T01:09:03.392Z,14.00
2022-09-01T01:10:03.518Z,14.00
2022-09-01T01:11:02.698Z,14.00
2022-09-01T01:12:02.662Z,14.00
2022-09-01T01:13:02.830Z,13.90
2022-09-01T01:14:02.926Z,13.90
2022-09-01T01:15:03.065Z,13.90
2022-09-01T01:16:02.655Z,13.90
2022-09-01T01:17:02.928Z,13.90
2022-09-01T01:18:02.840Z,13.90
2022-09-01T01:19:02.838Z,13.90
2022-09-01T01:20:02.870Z,13.90
2022-09-01T01:21:02.877Z,13.90
2022-09-01T01:22:02.897Z,13.90
2022-09-01T01:23:03.088Z,13.80
2022-09-01T01:24:03.047Z,13.80
2022-09-01T01:25:03.009Z,13.80
2022-09-01T01:26:03.086Z,13.80
2022-09-01T01:27:03.227Z,13.80
2022-09-01T01:28:03.276Z,13.80
2022-09-01T01:29:02.827Z,13.80
2022-09-01T01:30:02.901Z,13.80
2022-09-01T01:31:02.992Z,13.70
2022-09-01T01:32:03.065Z,13.70
2022-09-01T01:33:03.368Z,13.70
2022-09-01T01:34:03.191Z,13.70
2022-09-01T01:35:03.295Z,13.70
2022-09-01T01:36:03.385Z,13.70
2022-09-01T01:37:03.502Z,13.70
2022-09-01T01:38:03.517Z,13.70
2022-09-01T01:39:03.483Z,13.70
2022-09-01T01:40:03.670Z,13.70
2022-09-01T01:41:03.598Z,13.70
2022-09-01T01:42:03.566Z,13.60
2022-09-01T01:43:02.615Z,13.60
2022-09-01T01:44:02.607Z,13.60
2022-09-01T01:45:02.730Z,13.60
2022-09-01T01:46:03.004Z,13.60
2022-09-01T01:47:02.804Z,13.60
2022-09-01T01:48:02.852Z,13.60
2022-09-01T01:49:02.924Z,13.60
2022-09-01T01:50:02.920Z,13.50
2022-09-01T01:51:02.963Z,13.50
2022-09-01T01:52:02.953Z,13.50
2022-09-01T01:53:02.971Z,13.50
2022-09-01T01:54:02.983Z,13.50
2022-09-01T01:55:05.186Z,13.50
2022-09-01T01:56:02.941Z,13.40
2022-09-01T01:57:02.963Z,13.40
2022-09-01T01:58:03.010Z,13.40
2022-09-01T01:59:03.168Z,13.40
2022-09-01T02:00:03.079Z,13.40
2022-09-01T02:01:03.247Z,13.40
2022-09-01T02:02:03.291Z,13.40
2022-09-01T02:03:03.369Z,13.40
2022-09-01T02:04:03.429Z,13.40
2022-09-01T02:05:03.408Z,13.40
2022-09-01T02:06:03.528Z,13.40
2022-09-01T02:07:03.530Z,13.40
2022-09-01T02:08:03.570Z,13.30
2022-09-01T02:09:02.628Z,13.30
2022-09-01T02:10:02.666Z,13.30
2022-09-01T02:11:02.725Z,13.30
2022-09-01T02:12:02.735Z,13.30
2022-09-01T02:13:02.809Z,13.30
2022-09-01T02:14:02.775Z,13.30
2022-09-01T02:15:02.891Z,13.30
2022-09-01T02:16:03.081Z,13.20
2022-09-01T02:17:03.232Z,13.20
2022-09-01T02:18:03.249Z,13.20
2022-09-01T02:19:03.170Z,13.20
2022-09-01T02:20:03.239Z,13.20
2022-09-01T02:21:03.389Z,13.20
2022-09-01T02:22:03.413Z,13.20
2022-09-01T02:23:03.506Z,13.20
2022-09-01T02:24:02.620Z,13.20
2022-09-01T02:25:02.751Z,13.20
2022-09-01T02:26:15.959Z,13.20
2022-09-01T02:27:02.806Z,13.10
2022-09-01T02:28:02.967Z,13.10
2022-09-01T02:29:02.971Z,13.10
2022-09-01T02:30:03.016Z,13.10
2022-09-01T02:31:03.377Z,13.10
2022-09-01T02:32:03.317Z,13.10
2022-09-01T02:33:03.511Z,13.10
2022-09-01T02:34:03.414Z,13.10
2022-09-01T02:35:03.541Z,13.00
2022-09-01T02:36:03.568Z,13.00
2022-09-01T02:37:02.680Z,13.00
2022-09-01T02:38:02.677Z,13.00
2022-09-01T02:39:02.646Z,13.00
2022-09-01T02:40:02.631Z,13.00
2022-09-01T02:41:02.636Z,13.00
2022-09-01T02:42:03.290Z,13.00
2022-09-01T02:43:03.313Z,13.00
2022-09-01T02:44:03.400Z,12.90
2022-09-01T02:45:03.633Z,12.90
2022-09-01T02:46:03.559Z,12.90
2022-09-01T02:47:03.531Z,12.90
2022-09-01T02:48:03.509Z,12.90
2022-09-01T02:49:02.661Z,12.90
2022-09-01T02:50:02.627Z,12.90
2022-09-01T02:51:02.664Z,12.90
2022-09-01T02:52:02.627Z,12.80
2022-09-01T02:53:03.973Z,12.80
2022-09-01T02:54:02.623Z,12.80
2022-09-01T02:55:02.677Z,12.80
2022-09-01T02:56:02.679Z,12.80
2022-09-01T02:57:02.781Z,12.80
2022-09-01T02:58:02.756Z,12.80
2022-09-01T02:59:02.833Z,12.70
2022-09-01T03:00:02.955Z,12.70
2022-09-01T03:01:02.924Z,12.70
2022-09-01T03:02:03.098Z,12.70
2022-09-01T03:03:03.082Z,12.70
2022-09-01T03:04:03.227Z,12.70
2022-09-01T03:05:03.444Z,12.70
2022-09-01T03:06:03.486Z,12.70
2022-09-01T03:07:03.520Z,12.70
2022-09-01T03:08:02.680Z,12.60
2022-09-01T03:09:02.655Z,12.60
2022-09-01T03:10:02.773Z,12.60
2022-09-01T03:11:02.636Z,12.60
2022-09-01T03:12:02.835Z,12.60
2022-09-01T03:13:02.880Z,12.60
2022-09-01T03:14:02.948Z,12.60
2022-09-01T03:15:02.889Z,12.60
2022-09-01T03:16:02.956Z,12.60
2022-09-01T03:17:03.010Z,12.60
2022-09-01T03:18:02.997Z,12.60
2022-09-01T03:19:03.140Z,12.60
2022-09-01T03:20:03.091Z,12.60
2022-09-01T03:21:03.092Z,12.60
2022-09-01T03:22:03.226Z,12.60
2022-09-01T03:23:03.387Z,12.60
2022-09-01T03:24:03.441Z,12.60
2022-09-01T03:25:03.516Z,12.60
2022-09-01T03:26:03.593Z,12.60
2022-09-01T03:27:03.550Z,12.60
2022-09-01T03:28:03.652Z,12.60
2022-09-01T03:29:02.609Z,12.60
2022-09-01T03:30:02.689Z,12.50
2022-09-01T03:31:02.628Z,12.50
2022-09-01T03:32:02.712Z,12.50
2022-09-01T03:33:02.695Z,12.50
2022-09-01T03:34:02.796Z,12.50
2022-09-01T03:35:02.857Z,12.50
2022-09-01T03:36:03.016Z,12.50
2022-09-01T03:37:02.977Z,12.50
2022-09-01T03:38:03.029Z,12.50
2022-09-01T03:39:03.166Z,12.50
2022-09-01T03:40:03.152Z,12.50
2022-09-01T03:41:03.182Z,12.40
2022-09-01T03:42:03.310Z,12.40
2022-09-01T03:43:03.301Z,12.40
2022-09-01T03:44:03.386Z,12.40
2022-09-01T03:45:03.463Z,12.40
2022-09-01T03:46:03.583Z,12.40
2022-09-01T03:47:03.607Z,12.40
2022-09-01T03:48:03.593Z,12.40
2022-09-01T03:49:02.648Z,12.30
2022-09-01T03:50:02.661Z,12.30
2022-09-01T03:51:02.928Z,12.30
2022-09-01T03:52:02.743Z,12.30
2022-09-01T03:53:02.794Z,12.30
2022-09-01T03:54:02.860Z,12.30
2022-09-01T03:55:02.867Z,12.30
2022-09-01T03:56:02.726Z,12.20
2022-09-01T03:57:02.676Z,12.20
2022-09-01T03:58:02.681Z,12.20
2022-09-01T03:59:02.733Z,12.20
2022-09-01T04:00:02.710Z,12.20
2022-09-01T04:01:02.909Z,12.20
2022-09-01T04:02:02.888Z,12.20
2022-09-01T04:03:02.831Z,12.10
2022-09-01T04:04:02.881Z,12.10
2022-09-01T04:05:06.470Z,12.10
2022-09-01T04:06:02.804Z,12.10
2022-09-01T04:07:02.875Z,12.10
2022-09-01T04:08:02.858Z,12.10
2022-09-01T04:09:03.459Z,12.10
2022-09-01T04:10:03.075Z,12.10
2022-09-01T04:11:03.047Z,12.10
2022-09-01T04:12:03.081Z,12.10
2022-09-01T04:13:03.019Z,12.10
2022-09-01T04:14:03.141Z,12.10
2022-09-01T04:15:03.020Z,12.10
2022-09-01T04:16:02.976Z,12.10
2022-09-01T04:17:03.020Z,12.10
2022-09-01T04:18:03.204Z,12.00
2022-09-01T04:19:03.217Z,12.00
2022-09-01T04:20:03.304Z,12.00
2022-09-01T04:21:02.606Z,12.00
2022-09-01T04:22:02.697Z,12.00
2022-09-01T04:23:02.865Z,12.00
2022-09-01T04:24:02.760Z,12.00
2022-09-01T04:25:02.980Z,12.00
2022-09-01T04:26:03.545Z,12.00
2022-09-01T04:27:03.577Z,12.00
2022-09-01T04:28:02.668Z,12.00
2022-09-01T04:29:02.614Z,11.90
2022-09-01T04:30:02.710Z,11.90
2022-09-01T04:31:02.640Z,11.90
2022-09-01T04:32:02.794Z,11.90
2022-09-01T04:33:02.775Z,11.90
2022-09-01T04:34:02.756Z,11.90
2022-09-01T04:35:02.792Z,11.90
2022-09-01T04:36:02.651Z,11.90
2022-09-01T04:37:02.724Z,11.90
2022-09-01T04:38:02.768Z,11.90
2022-09-01T04:39:02.782Z,11.90
2022-09-01T04:40:02.841Z,11.90
2022-09-01T04:41:02.881Z,11.90
2022-09-01T04:42:02.806Z,12.00
2022-09-01T04:43:02.902Z,11.90
2022-09-01T04:44:02.805Z,12.00
2022-09-01T04:45:09.866Z,12.00
2022-09-01T04:46:02.757Z,12.00
2022-09-01T04:47:02.957Z,12.00
2022-09-01T04:48:02.767Z,12.00
2022-09-01T04:49:02.653Z,12.00
2022-09-01T04:50:02.734Z,12.00
2022-09-01T04:51:03.251Z,12.00
2022-09-01T04:52:03.348Z,12.00
2022-09-01T04:53:03.217Z,12.00
2022-09-01T04:54:03.180Z,12.00
2022-09-01T04:55:03.317Z,12.00
2022-09-01T04:56:03.341Z,12.00
2022-09-01T04:57:03.303Z,12.10
2022-09-01T04:58:06.128Z,12.10
2022-09-01T04:59:03.285Z,12.10
2022-09-01T05:00:03.351Z,12.10
2022-09-01T05:01:03.336Z,12.10
2022-09-01T05:02:03.355Z,12.10
2022-09-01T05:03:03.486Z,12.20
2022-09-01T05:04:03.875Z,12.20
2022-09-01T05:05:03.499Z,12.20
2022-09-01T05:06:03.623Z,12.20
2022-09-01T05:07:03.571Z,12.20
2022-09-01T05:08:02.701Z,12.30
2022-09-01T05:09:02.664Z,12.30
2022-09-01T05:10:03.168Z,12.30
2022-09-01T05:11:03.283Z,12.30
2022-09-01T05:12:03.304Z,12.40
2022-09-01T05:13:03.391Z,12.40
2022-09-01T05:14:03.492Z,12.40
2022-09-01T05:15:03.576Z,12.40
2022-09-01T05:16:02.638Z,12.40
2022-09-01T05:17:02.838Z,12.50
2022-09-01T05:18:02.894Z,12.50
2022-09-01T05:19:03.004Z,12.60
2022-09-01T05:20:02.850Z,12.60
2022-09-01T05:21:02.858Z,12.70
2022-09-01T05:22:03.036Z,12.80
2022-09-01T05:23:03.048Z,12.80
2022-09-01T05:24:02.989Z,12.90
2022-09-01T05:25:03.126Z,13.00
2022-09-01T05:26:03.279Z,13.10
2022-09-01T05:27:03.272Z,13.20
2022-09-01T05:28:03.323Z,13.30
2022-09-01T05:29:03.475Z,13.30
2022-09-01T05:30:03.411Z,13.40
2022-09-01T05:31:03.532Z,13.40
2022-09-01T05:32:03.399Z,13.50
2022-09-01T05:33:03.451Z,13.50
2022-09-01T05:34:03.524Z,13.50
2022-09-01T05:35:03.622Z,13.60
2022-09-01T05:36:03.648Z,13.60
2022-09-01T05:37:02.591Z,13.60
2022-09-01T05:38:02.813Z,13.60
2022-09-01T05:39:02.724Z,13.60
2022-09-01T05:40:02.875Z,13.70
2022-09-01T05:41:02.842Z,13.70
2022-09-01T05:42:03.027Z,13.70
2022-09-01T05:43:02.990Z,13.70
2022-09-01T05:44:03.000Z,13.70
2022-09-01T05:45:03.027Z,13.80
2022-09-01T05:46:06.800Z,13.80
2022-09-01T05:47:03.316Z,13.80
2022-09-01T05:48:03.297Z,13.80
2022-09-01T05:49:03.407Z,13.80
2022-09-01T05:50:03.443Z,13.80
2022-09-01T05:51:03.451Z,13.80
2022-09-01T05:52:03.437Z,13.80
2022-09-01T05:53:03.519Z,13.80
2022-09-01T05:54:03.435Z,13.80
2022-09-01T05:55:02.606Z,13.80
2022-09-01T05:56:02.696Z,13.80
2022-09-01T05:57:17.725Z,13.90
2022-09-01T05:58:02.818Z,13.90
2022-09-01T05:59:26.656Z,13.90
2022-09-01T06:00:03.122Z,13.90
2022-09-01T06:01:03.082Z,13.90
2022-09-01T06:02:03.071Z,13.90
2022-09-01T06:03:03.113Z,14.00
2022-09-01T06:04:02.905Z,14.00
2022-09-01T06:05:03.059Z,14.10
2022-09-01T06:06:03.024Z,14.10
2022-09-01T06:07:06.325Z,14.20
2022-09-01T06:08:03.115Z,14.20
2022-09-01T06:09:03.091Z,14.30
2022-09-01T06:10:03.008Z,14.30
2022-09-01T06:11:03.091Z,14.40
2022-09-01T06:12:03.041Z,14.40
2022-09-01T06:13:03.124Z,14.50
2022-09-01T06:14:03.293Z,14.60
2022-09-01T06:15:03.367Z,14.70
2022-09-01T06:16:03.333Z,14.70
2022-09-01T06:17:03.480Z,14.80
2022-09-01T06:18:03.429Z,14.90
2022-09-01T06:19:03.515Z,15.00
2022-09-01T06:20:03.509Z,15.20
2022-09-01T06:21:03.542Z,15.30
2022-09-01T06:22:03.496Z,15.40
2022-09-01T06:23:03.528Z,15.50
2022-09-01T06:24:03.594Z,15.60
2022-09-01T06:25:03.177Z,15.70
2022-09-01T06:26:02.798Z,15.70
2022-09-01T06:27:02.855Z,15.80
2022-09-01T06:28:02.872Z,15.80
2022-09-01T06:29:02.909Z,15.90
2022-09-01T06:30:02.867Z,15.90
2022-09-01T06:31:03.014Z,16.00
2022-09-01T06:32:02.937Z,16.00
2022-09-01T06:33:02.940Z,16.10
2022-09-01T06:34:02.812Z,16.20
2022-09-01T06:35:02.924Z,16.20
2022-09-01T06:36:02.952Z,16.30
2022-09-01T06:37:03.109Z,16.30
2022-09-01T06:38:03.098Z,16.40
2022-09-01T06:39:03.135Z,16.50
2022-09-01T06:40:03.357Z,16.50
2022-09-01T06:41:03.298Z,16.60
2022-09-01T06:42:06.025Z,16.70
2022-09-01T06:43:03.284Z,16.70
2022-09-01T06:44:03.358Z,16.80
2022-09-01T06:45:03.349Z,16.80
2022-09-01T06:46:03.455Z,16.80
2022-09-01T06:47:03.467Z,16.80
2022-09-01T06:48:03.497Z,16.80
2022-09-01T06:49:03.548Z,16.90
2022-09-01T06:50:02.690Z,16.90
2022-09-01T06:51:20.479Z,17.00
2022-09-01T06:52:02.841Z,17.10
2022-09-01T06:53:32.767Z,17.10
2022-09-01T06:54:02.795Z,17.20
2022-09-01T06:55:07.200Z,17.30
2022-09-01T06:56:03.003Z,17.40
2022-09-01T06:58:03.237Z,17.50
2022-09-01T06:58:03.899Z,17.60
2022-09-01T06:59:02.895Z,17.60
2022-09-01T07:00:03.000Z,17.70
2022-09-01T07:01:02.968Z,17.80
2022-09-01T07:02:04.701Z,17.80
2022-09-01T07:03:02.996Z,17.90
2022-09-01T07:04:02.982Z,18.00
2022-09-01T07:05:03.072Z,18.10
2022-09-01T07:06:03.230Z,18.10
2022-09-01T07:07:54.014Z,18.20
2022-09-01T07:08:06.001Z,18.20
2022-09-01T07:10:17.891Z,18.40
2022-09-01T07:12:37.339Z,18.50
2022-09-01T07:13:06.542Z,18.60
2022-09-01T07:14:16.638Z,18.70
2022-09-01T07:16:34.076Z,18.80
2022-09-01T07:17:24.003Z,18.90
2022-09-01T07:18:02.687Z,18.90
2022-09-01T07:19:02.638Z,19.00
2022-09-01T07:20:24.078Z,19.00
2022-09-01T07:21:05.817Z,19.00
2022-09-01T07:22:08.122Z,18.90
2022-09-01T07:23:03.737Z,18.90
2022-09-01T07:24:11.058Z,18.90
2022-09-01T07:26:03.553Z,18.80
2022-09-01T07:27:08.285Z,18.80
2022-09-01T07:28:03.100Z,18.80
2022-09-01T07:29:04.141Z,18.80
2022-09-01T07:30:02.994Z,18.80
2022-09-01T07:35:03.267Z,18.70
2022-09-01T07:36:29.635Z,18.70
2022-09-01T07:38:47.171Z,18.60
2022-09-01T07:42:58.390Z,18.90
2022-09-01T07:42:58.408Z,18.80
2022-09-01T07:44:03.373Z,18.50
2022-09-01T07:45:26.796Z,18.50
2022-09-01T07:46:36.562Z,18.50
2022-09-01T07:47:20.644Z,18.60
2022-09-01T07:48:03.797Z,18.60
2022-09-01T07:49:29.375Z,18.60
2022-09-01T07:50:37.315Z,18.70
2022-09-01T07:52:02.788Z,18.90
2022-09-01T07:53:02.792Z,18.90
2022-09-01T07:54:02.861Z,19.00
2022-09-01T07:55:02.943Z,19.00
2022-09-01T07:56:02.860Z,19.10
2022-09-01T07:57:02.834Z,19.20
2022-09-01T07:58:02.955Z,19.20
2022-09-01T07:59:02.946Z,19.20
2022-09-01T08:00:02.999Z,19.30
2022-09-01T08:01:03.007Z,19.30
2022-09-01T08:02:03.110Z,19.40
2022-09-01T08:03:03.018Z,19.50
2022-09-01T08:04:03.102Z,19.50
2022-09-01T08:05:03.201Z,19.50
2022-09-01T08:06:03.134Z,19.60
2022-09-01T08:07:03.270Z,19.60
2022-09-01T08:08:03.256Z,19.60
2022-09-01T08:09:03.238Z,19.70
2022-09-01T08:10:03.239Z,19.70
2022-09-01T08:11:04.779Z,19.70
2022-09-01T08:12:03.494Z,19.70
2022-09-01T08:13:03.437Z,19.70
2022-09-01T08:14:03.483Z,19.80
2022-09-01T08:16:07.671Z,19.90
2022-09-01T08:17:16.711Z,19.90
2022-09-01T08:18:02.733Z,19.90
2022-09-01T08:19:02.752Z,19.90
2022-09-01T08:20:03.183Z,20.00
2022-09-01T08:21:02.681Z,20.00
2022-09-01T08:22:02.798Z,20.00
2022-09-01T08:23:02.823Z,20.10
2022-09-01T08:24:02.872Z,20.10
2022-09-01T08:25:02.867Z,20.20
2022-09-01T08:26:02.866Z,20.20
2022-09-01T08:27:02.884Z,20.20
2022-09-01T08:28:03.039Z,20.30
2022-09-01T08:29:03.009Z,20.30
2022-09-01T08:30:03.020Z,20.30
2022-09-01T08:31:05.442Z,20.30
2022-09-01T08:32:03.174Z,20.40
2022-09-01T08:33:10.595Z,20.40
2022-09-01T08:34:03.177Z,20.50
2022-09-01T08:35:03.585Z,20.50
2022-09-01T08:36:03.671Z,20.50
2022-09-01T08:37:03.299Z,20.60
2022-09-01T08:38:03.338Z,20.60
2022-09-01T08:39:03.402Z,20.60
2022-09-01T08:40:04.011Z,20.70
2022-09-01T08:41:03.532Z,20.70
2022-09-01T08:42:03.646Z,20.70
2022-09-01T08:43:02.708Z,20.70
2022-09-01T08:44:03.608Z,20.70
2022-09-01T08:45:02.644Z,20.70
2022-09-01T08:46:02.713Z,20.70
2022-09-01T08:47:02.663Z,20.80
2022-09-01T08:48:36.978Z,20.80
2022-09-01T08:49:24.553Z,20.80
2022-09-01T08:50:05.967Z,20.90
2022-09-01T08:51:03.189Z,20.90
2022-09-01T08:52:02.974Z,21.00
2022-09-01T08:53:09.309Z,21.00
2022-09-01T08:54:03.173Z,21.00
2022-09-01T08:55:03.520Z,21.10
2022-09-01T08:56:03.214Z,21.10
2022-09-01T08:57:03.287Z,21.20
2022-09-01T08:58:03.310Z,21.20
2022-09-01T08:59:03.461Z,21.20
2022-09-01T09:00:03.428Z,21.20
2022-09-01T09:01:03.524Z,21.20
2022-09-01T09:02:02.705Z,21.20
2022-09-01T09:03:03.709Z,21.20
2022-09-01T09:04:02.749Z,21.20
2022-09-01T09:05:15.380Z,21.20
2022-09-01T09:06:02.794Z,21.20
2022-09-01T09:07:02.856Z,21.20
2022-09-01T09:08:07.632Z,21.20
2022-09-01T09:09:02.849Z,21.20
2022-09-01T09:10:02.936Z,21.20
2022-09-01T09:11:02.923Z,21.20
2022-09-01T09:12:03.567Z,21.20
2022-09-01T09:13:03.096Z,21.20
2022-09-01T09:14:03.135Z,21.20
2022-09-01T09:15:03.167Z,21.20
2022-09-01T09:16:08.670Z,21.20
2022-09-01T09:17:03.474Z,21.20
2022-09-01T09:18:03.383Z,21.20
2022-09-01T09:19:03.555Z,21.20
2022-09-01T09:20:03.331Z,21.20
2022-09-01T09:21:03.511Z,21.20
2022-09-01T09:22:03.436Z,21.20
2022-09-01T09:23:03.920Z,21.20
2022-09-01T09:24:02.678Z,21.30
2022-09-01T09:25:02.700Z,21.30
2022-09-01T09:26:03.669Z,21.30
2022-09-01T09:27:03.581Z,21.30
2022-09-01T09:28:02.668Z,21.30
2022-09-01T09:29:02.706Z,21.30
2022-09-01T09:30:07.468Z,21.30
2022-09-01T09:31:03.093Z,21.40
2022-09-01T09:32:03.040Z,21.40
2022-09-01T09:33:37.476Z,21.40
2022-09-01T09:34:02.762Z,21.40
2022-09-01T09:35:02.734Z,21.40
2022-09-01T09:36:02.749Z,21.50
2022-09-01T09:37:02.691Z,21.50
2022-09-01T09:38:02.903Z,21.50
2022-09-01T09:39:02.878Z,21.60
2022-09-01T09:40:02.876Z,21.60
2022-09-01T09:41:18.157Z,21.60
2022-09-01T09:42:03.874Z,21.60
2022-09-01T09:43:03.007Z,21.60
2022-09-01T09:44:03.083Z,21.60
2022-09-01T09:45:03.084Z,21.60
2022-09-01T09:46:03.170Z,21.60
2022-09-01T09:47:03.315Z,21.60
2022-09-01T09:48:03.298Z,21.60
2022-09-01T09:49:03.357Z,21.60
2022-09-01T09:50:05.248Z,21.60
2022-09-01T09:51:03.541Z,21.70
2022-09-01T09:52:03.559Z,21.70
2022-09-01T09:53:02.616Z,21.70
2022-09-01T09:54:02.789Z,21.70
2022-09-01T09:55:02.788Z,21.80
2022-09-01T09:56:02.782Z,21.80
2022-09-01T09:57:03.313Z,21.70
2022-09-01T09:58:02.945Z,21.70
2022-09-01T09:59:03.028Z,21.70
2022-09-01T10:00:03.032Z,21.70
2022-09-01T10:01:03.933Z,21.70
2022-09-01T10:02:03.218Z,21.70
2022-09-01T10:03:04.529Z,21.80
2022-09-01T10:04:03.298Z,21.80
2022-09-01T10:05:03.294Z,21.80
2022-09-01T10:06:03.331Z,21.90
2022-09-01T10:07:03.428Z,21.80
2022-09-01T10:08:03.378Z,21.90
2022-09-01T10:09:03.547Z,21.90
2022-09-01T10:10:03.549Z,21.90
2022-09-01T10:11:02.657Z,21.80
2022-09-01T10:12:02.843Z,21.80
2022-09-01T10:13:02.983Z,21.80
2022-09-01T10:14:02.906Z,21.80
2022-09-01T10:15:04.636Z,21.80
2022-09-01T10:16:03.670Z,21.70
2022-09-01T10:17:03.805Z,21.70
2022-09-01T10:18:22.045Z,21.60
2022-09-01T10:19:03.170Z,21.60
2022-09-01T10:20:03.108Z,21.50
2022-09-01T10:21:03.187Z,21.50
2022-09-01T10:22:03.203Z,21.50
2022-09-01T10:23:03.763Z,21.50
2022-09-01T10:24:20.465Z,21.40
2022-09-01T10:25:03.452Z,21.50
2022-09-01T10:26:05.885Z,21.50
2022-09-01T10:27:03.249Z,21.50
2022-09-01T10:28:03.366Z,21.50
2022-09-01T10:29:03.294Z,21.50
2022-09-01T10:30:19.724Z,21.50
2022-09-01T10:31:03.555Z,21.50
2022-09-01T10:32:15.021Z,21.50
2022-09-01T10:33:11.178Z,21.50
2022-09-01T10:34:02.861Z,21.60
2022-09-01T10:35:02.790Z,21.50
2022-09-01T10:36:06.139Z,21.50
2022-09-01T10:37:03.030Z,21.50
2022-09-01T10:38:03.056Z,21.50
2022-09-01T10:39:06.052Z,21.60
2022-09-01T10:40:03.198Z,21.60
2022-09-01T10:41:03.136Z,21.60
2022-09-01T10:42:03.128Z,21.70
2022-09-01T10:43:05.528Z,21.70
2022-09-01T10:44:03.254Z,21.80
2022-09-01T10:45:03.330Z,21.80
2022-09-01T10:46:05.640Z,21.90
2022-09-01T10:47:04.044Z,22.00
2022-09-01T10:48:03.402Z,22.00
2022-09-01T10:49:04.197Z,22.10
2022-09-01T10:50:07.579Z,22.10
2022-09-01T10:51:03.459Z,22.10
2022-09-01T10:52:07.528Z,22.20
2022-09-01T10:53:04.868Z,22.20
2022-09-01T10:54:03.510Z,22.20
2022-09-01T10:55:03.567Z,22.20
2022-09-01T10:56:03.803Z,22.20
2022-09-01T10:57:08.852Z,22.30
2022-09-01T10:58:08.588Z,22.30
2022-09-01T10:59:32.601Z,22.30
2022-09-01T11:00:03.721Z,22.30
2022-09-01T11:01:11.160Z,22.30
2022-09-01T11:02:27.462Z,22.30
2022-09-01T11:03:29.554Z,22.30
2022-09-01T11:04:02.823Z,22.30
2022-09-01T11:05:02.803Z,22.40
2022-09-01T11:06:12.466Z,22.40
2022-09-01T11:07:14.789Z,22.40
2022-09-01T11:08:14.576Z,22.40
2022-09-01T11:09:03.065Z,22.30
2022-09-01T11:10:10.939Z,22.30
2022-09-01T11:11:03.180Z,22.30
2022-09-01T11:12:03.248Z,22.30
2022-09-01T11:13:03.341Z,22.30
2022-09-01T11:14:03.551Z,22.30
2022-09-01T11:15:03.498Z,22.30
2022-09-01T11:16:03.537Z,22.30
2022-09-01T11:17:02.784Z,22.30
2022-09-01T11:18:02.755Z,22.30
2022-09-01T11:19:02.852Z,22.30
2022-09-01T11:20:02.961Z,22.30
2022-09-01T11:21:02.926Z,22.30
2022-09-01T11:22:02.957Z,22.30
2022-09-01T11:23:03.470Z,22.30
2022-09-01T11:24:03.412Z,22.30
2022-09-01T11:25:11.085Z,22.30
2022-09-01T11:26:19.201Z,22.30
2022-09-01T11:27:03.228Z,22.30
2022-09-01T11:28:03.309Z,22.30
2022-09-01T11:29:03.398Z,22.30
2022-09-01T11:30:03.393Z,22.20
2022-09-01T11:31:03.429Z,22.20
2022-09-01T11:32:03.567Z,22.20
2022-09-01T11:33:03.524Z,22.20
2022-09-01T11:34:02.632Z,22.10
2022-09-01T11:35:02.829Z,22.10
2022-09-01T11:36:02.826Z,22.10
2022-09-01T11:37:02.771Z,22.00
2022-09-01T11:38:02.755Z,22.00
2022-09-01T11:39:03.022Z,22.00
2022-09-01T11:40:03.074Z,21.90
2022-09-01T11:41:03.068Z,21.90
2022-09-01T11:42:04.204Z,21.80
2022-09-01T11:43:03.063Z,21.80
2022-09-01T11:44:03.094Z,21.80
2022-09-01T11:45:03.068Z,21.80
2022-09-01T11:46:03.080Z,21.70
2022-09-01T11:47:03.107Z,21.70
2022-09-01T11:48:03.136Z,21.70
2022-09-01T11:49:03.239Z,21.70
2022-09-01T11:50:03.205Z,21.60
2022-09-01T11:51:03.257Z,21.60
2022-09-01T11:52:03.268Z,21.60
2022-09-01T11:53:05.341Z,21.60
2022-09-01T11:54:03.336Z,21.50
2022-09-01T11:55:03.446Z,21.50
2022-09-01T11:56:03.455Z,21.40
2022-09-01T11:57:03.400Z,21.40
2022-09-01T11:58:03.465Z,21.30
2022-09-01T11:59:03.427Z,21.30
2022-09-01T12:00:03.542Z,21.30
2022-09-01T12:01:03.512Z,21.20
2022-09-01T12:02:03.576Z,21.20
2022-09-01T12:03:02.756Z,21.10
2022-09-01T12:04:03.635Z,21.10
2022-09-01T12:05:03.565Z,21.10
2022-09-01T12:06:02.713Z,21.10
2022-09-01T12:07:02.607Z,21.10
2022-09-01T12:08:02.771Z,21.10
2022-09-01T12:09:02.788Z,21.10
2022-09-01T12:10:03.112Z,21.10
2022-09-01T12:11:03.150Z,21.10
2022-09-01T12:12:03.197Z,21.10
2022-09-01T12:13:03.201Z,21.20
2022-09-01T12:14:04.026Z,21.20
2022-09-01T12:15:05.957Z,21.30
2022-09-01T12:16:17.784Z,21.40
2022-09-01T12:17:03.365Z,21.40
2022-09-01T12:18:03.335Z,21.50
2022-09-01T12:19:03.392Z,21.50
2022-09-01T12:20:03.559Z,21.60
2022-09-01T12:21:03.550Z,21.60
2022-09-01T12:22:03.614Z,21.70
2022-09-01T12:23:02.768Z,21.70
2022-09-01T12:24:02.726Z,21.70
2022-09-01T12:25:03.088Z,21.70
2022-09-01T12:26:03.053Z,21.70
2022-09-01T12:27:03.001Z,21.70
2022-09-01T12:28:02.931Z,21.70
2022-09-01T12:29:03.081Z,21.60
2022-09-01T12:30:03.048Z,21.60
2022-09-01T12:31:03.072Z,21.70
2022-09-01T12:32:03.091Z,21.70
2022-09-01T12:33:24.584Z,21.70
2022-09-01T12:34:03.069Z,21.70
2022-09-01T12:35:07.362Z,21.80
2022-09-01T12:36:03.242Z,21.80
2022-09-01T12:37:03.199Z,21.90
2022-09-01T12:38:04.594Z,21.90
2022-09-01T12:39:03.289Z,22.00
2022-09-01T12:40:03.407Z,22.00
2022-09-01T12:41:03.475Z,22.00
2022-09-01T12:42:03.464Z,22.00
2022-09-01T12:43:03.499Z,22.10
2022-09-01T12:44:03.415Z,22.10
2022-09-01T12:45:03.563Z,22.20
2022-09-01T12:46:04.568Z,22.20
2022-09-01T12:47:02.604Z,22.20
2022-09-01T12:48:02.731Z,22.20
2022-09-01T12:49:02.805Z,22.20
2022-09-01T12:50:03.342Z,22.20
2022-09-01T12:51:02.914Z,22.30
2022-09-01T12:52:02.866Z,22.30
2022-09-01T12:53:02.975Z,22.30
2022-09-01T12:54:04.571Z,22.30
2022-09-01T12:55:03.351Z,22.30
2022-09-01T12:56:03.296Z,22.30
2022-09-01T12:57:03.555Z,22.30
2022-09-01T12:58:03.398Z,22.30
2022-09-01T12:59:03.460Z,22.40
2022-09-01T13:00:03.535Z,22.40
2022-09-01T13:01:03.804Z,22.40
2022-09-01T13:02:03.764Z,22.40
2022-09-01T13:03:03.953Z,22.40
2022-09-01T13:04:03.699Z,22.40
2022-09-01T13:05:03.649Z,22.40
2022-09-01T13:06:03.623Z,22.40